KHVS/HVS METAR and TAF weather

Enter ICAO airport designator
Station Type Date Time Source
KHVS METAR 2021/09/23 23:15 UTC NOAA

KHVS 232315Z AUTO 00000KT 10SM CLR 20/12 A2996 RMK AO2


Station Type Date Time Source
KHVS Decoded METAR 2021/09/23 23:15 UTC NOAA

Station name not available
Sep 23, 2021 - 07:15 PM EDT / 2021.09.23 2315 UTC
Wind: Calm:0
Visibility: 10 mile(s):0
Sky conditions: clear
Temperature: 68 F (20 C)
Dew Point: 53 F (12 C)
Relative Humidity: 59%
Pressure (altimeter): 29.96 in. Hg (1014 hPa)
ob: KHVS 232315Z AUTO 00000KT 10SM CLR 20/12 A2996 RMK AO2
cycle: 23

Station Type Date Time Source
KHVS TAF UTC NOAA

Error!

Example: see airport list